AirNav   Air Wisconsin Up To $57,000 Bonus
 
 410 users online  

1VG2 Whithall Farm Airport
Montross, Virginia, USA

GOING TO MONTROSS?


FAA INFORMATION EFFECTIVE 22 APRIL 2021

Location

FAA Identifier: 1VG2
Lat/Long: 38-07-39.6000N 076-41-21.0000W
38-07.660000N 076-41.350000W
38.1276667,-76.6891667
(estimated)
Elevation: 23 ft. / 7 m
Variation: 11W (2000)
From city: 8 miles NE of MONTROSS, VA
Time zone: UTC -4 (UTC -5 during Standard Time)
Zip code: 22520

Airport Operations

Airport use: Private use. Permission required prior to landing
Activation date: 12/2001
Control tower: no
ARTCC: WASHINGTON CENTER
FSS: LEESBURG FLIGHT SERVICE STATION
Attendance: 
Wind indicator: yes
Segmented circle: no

Airport Communications

WX AWOS-3 at 2W6 (13 nm NE): 119.575 (301-373-6514)
WX AWOS-3 at XSA (19 nm SW): 125.775 (804-445-8724)

Nearby radio navigation aids

VOR radial/distance  VOR name  Freq  Var
PXTr245/16.7PATUXENT VORTAC117.6010W
BRVr121/33.7BROOKE VORTAC114.5009W
OTTr186/34.8NOTTINGHAM VORTAC113.7010W

 
NDB name  Hdg/Dist  Freq  Var  ID
PATUXENT245/16.540010WNHK -. .... -.-
SHANNON113/36.923710WEZF . --.. ..-.
DAVEE157/37.722309WDAA -.. .- .-

Airport Services

Runway Information

Runway 1/19

Dimensions: 2800 x 50 ft. / 853 x 15 m
Surface: turf/gravel
RUNWAY 1  RUNWAY 19
Traffic pattern: leftleft
Obstructions: 35 ft. pline, 800 ft. from runway15 ft. road, 600 ft. from runway

Airport Ownership and Management from official FAA records

Ownership: Privately-owned

Airport Operational Statistics

Aircraft based on the field: 1
Single engine airplanes: 1
    

Additional Remarks

FOR CD CTC WASHINGTON ARTCC AT 703-771-3587.

Instrument Procedures

There are no published instrument procedures at 1VG2.

Some nearby airports with instrument procedures:

2W6 - St Mary's County Regional Airport (13 nm NE)
KNHK - Patuxent River Naval Air Station (Trapnell Field) (16 nm NE)
KXSA - Tappahannock-Essex County Airport (19 nm SW)
2W5 - Maryland Airport (33 nm NW)
W75 - Hummel Field Airport (34 nm S)
 
Loc | Ops | Rwys | IFR | FBO | Links
Com | Nav | Svcs | Stats | Notes
Area around 1VG2 (Whithall Farm Airport)
 
Road maps at: MapQuest Bing Google
 
Aerial photo
WARNING: Photo may not be current or correct
Aerial photo of 1VG2 (Whithall Farm Airport)
Photo by Steve Beste
Photo taken 12-May-2011
looking southwest.

Do you have a better or more recent aerial photo of Whithall Farm Airport that you would like to share? If so, please send us your photo.

 
Sectional chart

 
Airport distance calculator
Flying to Whithall Farm Airport? Find the distance to fly.

From to 1VG2

Sunrise and sunset
Times for 09-May-2021
 Local
(UTC-4)
 Zulu
(UTC)
Morning civil twilight05:3409:34
Sunrise06:0310:03
Sunset20:0400:04
Evening civil twilight20:3300:33

Current date and time
Zulu (UTC)  09-May-2021 07:46:24
Local (UTC-4)  09-May-2021 03:46:24
 
METAR
KNUI 
12nm E 
090653Z AUTO 00000KT 10SM CLR 08/04 A3009 RMK AO2 SLP188 T00780039
KNHK 
16nm NE 
090652Z AUTO 30005KT 10SM CLR 10/04 A3009 RMK AO2 SLP189 T01000039 $
KXSA 
19nm SW 
090735Z AUTO 00000KT 10SM CLR 05/05 A3012 RMK AO2 T00500050
TAF
KNHK 
16nm NE 
0820/0915 04012KT 9999 VCSH BKN065 BKN100 QNH2986INS TEMPO 0820/0822 8000 -SHRA BKN040 OVC080 BECMG 0823/0901 33010KT 9999 NSW SCT090 OVC150 QNH2998INS BECMG 0908/0909 VRB06KT FEW050 OVC080 QNH3010INS T09/0910Z T17/0820Z AMD 2017 FN00204
NOTAMs
Click for the latest NOTAMs
NOTAMs are issued by the DoD/FAA and will open in a separate window not controlled by AirNav.

 

 
 

Would you like to see your business listed on this page?

 If your business provides an interesting product or service to pilots, flight crews, aircraft, or users of the Whithall Farm Airport, you should consider listing it here.  To start the listing process, click on the button below
 
Add a business
 

Other Pages about Whithall Farm Airport

Update a link
 
Copyright © AirNav, LLC. All rights reserved. Privacy Policy  Contact